Time;durP1;ratioP1;P1;durP2;ratioP2;P2;SDS_P1;SDS_P2;PMS_P1;PMS_P2;Temp;Humidity;BMP_temperature;BMP_pressure;BME280_temperature;BME280_humidity;BME280_pressure;Samples;Min_cycle;Max_cycle;Signal;HPM_P1;HPM_P2
2022/06/29 00:02:03;;;;;;;2.05;0.95;;;23.80;56.60;;;;;;5030143;28;20073;-63
2022/06/29 00:04:29;;;;;;;1.23;0.85;;;23.80;56.50;;;;;;5029842;28;20041;-61
2022/06/29 00:06:55;;;;;;;1.17;0.88;;;23.80;56.50;;;;;;5031398;28;20047;-62
2022/06/29 00:09:20;;;;;;;1.90;1.00;;;23.80;56.50;;;;;;5030674;28;20038;-62
2022/06/29 00:11:46;;;;;;;2.15;0.93;;;23.80;56.50;;;;;;5028998;28;20496;-62
2022/06/29 00:14:11;;;;;;;1.92;1.10;;;23.80;56.50;;;;;;5032450;28;20084;-62
2022/06/29 00:16:37;;;;;;;2.47;1.00;;;23.80;56.40;;;;;;5014693;28;20220;-63
2022/06/29 00:19:03;;;;;;;1.60;1.10;;;23.80;56.40;;;;;;5032935;28;20386;-64
2022/06/29 00:21:28;;;;;;;1.48;1.00;;;23.80;56.40;;;;;;5029935;28;20545;-62
2022/06/29 00:23:54;;;;;;;1.85;0.80;;;23.80;56.30;;;;;;5032475;28;20183;-62
2022/06/29 00:26:19;;;;;;;1.42;1.05;;;23.80;56.30;;;;;;5030767;28;20036;-61
2022/06/29 00:28:45;;;;;;;1.23;0.70;;;23.80;56.30;;;;;;5029610;28;20034;-62
2022/06/29 00:31:11;;;;;;;1.02;0.90;;;23.80;56.30;;;;;;5029730;28;20030;-62
2022/06/29 00:33:36;;;;;;;1.55;1.00;;;23.80;56.30;;;;;;5029693;28;20433;-61
2022/06/29 00:36:02;;;;;;;1.23;0.88;;;23.80;56.20;;;;;;5030212;28;20091;-63
2022/06/29 00:38:29;;;;;;;2.05;1.00;;;23.80;56.20;;;;;;5030773;28;20041;-62
2022/06/29 00:40:54;;;;;;;1.80;0.82;;;23.80;56.20;;;;;;5031554;28;20795;-62
2022/06/29 00:43:20;;;;;;;0.80;0.80;;;23.80;56.20;;;;;;5028602;28;20074;-62
2022/06/29 00:45:46;;;;;;;2.35;1.02;;;23.80;56.30;;;;;;5009125;28;20486;-62
2022/06/29 00:48:11;;;;;;;1.33;1.00;;;23.80;56.20;;;;;;4994082;28;20443;-62
2022/06/29 00:50:41;;;;;;;1.40;1.10;;;23.80;56.20;;;;;;5011986;28;20060;-62
2022/06/29 00:53:09;;;;;;;1.13;0.95;;;23.80;56.30;;;;;;5013409;28;20100;-63
2022/06/29 00:55:40;;;;;;;1.50;1.15;;;23.80;56.20;;;;;;5010739;28;20044;-63
2022/06/29 00:58:09;;;;;;;1.75;0.95;;;23.80;56.20;;;;;;5010903;28;20536;-62
2022/06/29 01:00:34;;;;;;;1.30;0.80;;;23.80;56.10;;;;;;5011300;28;20041;-62
2022/06/29 01:03:01;;;;;;;0.95;0.85;;;23.70;55.90;;;;;;5010076;28;20030;-63
2022/06/29 01:05:29;;;;;;;1.23;0.85;;;23.70;55.90;;;;;;5007730;28;20536;-62
2022/06/29 01:07:55;;;;;;;1.63;0.90;;;23.70;56.00;;;;;;5010181;28;20042;-62
2022/06/29 01:10:21;;;;;;;0.60;0.60;;;23.70;56.00;;;;;;5013083;28;20038;-62
2022/06/29 01:12:48;;;;;;;1.75;0.80;;;23.70;56.00;;;;;;5010653;28;20033;-62
2022/06/29 01:15:14;;;;;;;1.27;0.70;;;23.70;55.90;;;;;;5008363;28;20041;-63
2022/06/29 01:17:40;;;;;;;0.85;0.80;;;23.70;55.90;;;;;;5009280;28;20048;-62
2022/06/29 01:20:07;;;;;;;1.25;0.80;;;23.70;55.90;;;;;;5010609;28;20117;-62
2022/06/29 01:22:32;;;;;;;0.60;0.60;;;23.70;55.90;;;;;;5009587;28;20561;-62
2022/06/29 01:24:58;;;;;;;2.10;0.80;;;23.70;55.90;;;;;;4991306;28;20045;-62
2022/06/29 01:27:24;;;;;;;1.05;0.90;;;23.70;55.80;;;;;;4992600;28;20041;-62
2022/06/29 01:29:50;;;;;;;1.23;0.90;;;23.70;55.80;;;;;;5009793;28;20068;-62
2022/06/29 01:32:16;;;;;;;1.83;0.80;;;23.70;55.80;;;;;;5009521;28;20282;-62
2022/06/29 01:34:43;;;;;;;0.70;0.70;;;23.70;55.70;;;;;;5011609;28;20515;-62
2022/06/29 01:37:08;;;;;;;1.00;0.90;;;23.70;56.50;;;;;;5007023;28;20033;-62
2022/06/29 01:39:35;;;;;;;0.80;0.73;;;23.70;55.70;;;;;;4993224;28;20210;-63
2022/06/29 01:42:01;;;;;;;2.08;0.90;;;23.60;55.70;;;;;;5009329;28;20083;-62
2022/06/29 01:44:26;;;;;;;0.70;0.60;;;23.60;55.70;;;;;;5011291;28;20037;-62
2022/06/29 01:46:52;;;;;;;1.00;0.70;;;23.60;55.70;;;;;;5026720;28;20500;-62
2022/06/29 01:49:18;;;;;;;1.13;0.80;;;23.60;55.60;;;;;;5025831;28;20088;-63
2022/06/29 01:51:44;;;;;;;0.70;0.65;;;23.60;55.60;;;;;;5009048;28;20049;-63
2022/06/29 01:54:10;;;;;;;2.20;0.80;;;23.60;55.60;;;;;;5027647;28;20029;-62
2022/06/29 01:56:35;;;;;;;1.30;0.90;;;23.60;55.60;;;;;;5029421;28;20116;-62
2022/06/29 01:59:01;;;;;;;1.33;0.80;;;23.70;55.60;;;;;;5028102;28;20118;-61
2022/06/29 02:01:27;;;;;;;2.08;0.73;;;23.60;55.60;;;;;;5023741;28;20402;-63
2022/06/29 02:03:53;;;;;;;1.45;0.93;;;23.60;55.60;;;;;;5028586;28;20577;-62
2022/06/29 02:06:19;;;;;;;1.00;0.70;;;23.60;55.60;;;;;;5030466;28;20037;-62
2022/06/29 02:08:46;;;;;;;1.20;0.80;;;23.60;55.60;;;;;;5032334;28;20033;-62
2022/06/29 02:11:12;;;;;;;1.67;0.63;;;23.60;55.60;;;;;;5032525;28;20428;-62
2022/06/29 02:13:37;;;;;;;0.82;0.80;;;23.60;55.60;;;;;;5031266;28;20041;-62
2022/06/29 02:16:03;;;;;;;0.73;0.60;;;23.60;55.60;;;;;;5031068;28;20381;-61
2022/06/29 02:18:29;;;;;;;0.60;0.55;;;23.60;55.50;;;;;;5032030;28;20045;-62
2022/06/29 02:20:54;;;;;;;0.80;0.80;;;23.60;55.50;;;;;;5032201;28;20033;-63
2022/06/29 02:23:20;;;;;;;1.48;0.88;;;23.60;55.50;;;;;;5029598;28;20037;-63
2022/06/29 02:25:47;;;;;;;0.80;0.60;;;23.60;55.50;;;;;;5028864;28;20037;-62
2022/06/29 02:28:13;;;;;;;1.58;0.80;;;23.60;55.50;;;;;;5028297;28;20037;-62
2022/06/29 02:36:07;;;;;;;0.80;0.73;;;23.60;55.50;;;;;;5029922;28;20048;-63
2022/06/29 02:38:33;;;;;;;1.95;0.82;;;23.60;55.50;;;;;;5013041;28;20043;-62
2022/06/29 02:40:59;;;;;;;1.08;0.77;;;23.60;55.50;;;;;;5031839;28;20037;-62
2022/06/29 02:43:25;;;;;;;1.55;0.70;;;23.60;55.50;;;;;;5031328;28;20100;-62
2022/06/29 02:45:51;;;;;;;1.30;0.70;;;23.50;55.40;;;;;;5028232;28;20041;-62
2022/06/29 02:48:17;;;;;;;1.33;0.65;;;23.60;55.50;;;;;;5009459;28;20211;-62
2022/06/29 02:50:42;;;;;;;0.68;0.68;;;23.50;55.40;;;;;;5012846;28;20082;-61
2022/06/29 02:53:08;;;;;;;1.15;0.70;;;23.60;55.50;;;;;;5031090;28;20784;-63
2022/06/29 02:55:34;;;;;;;2.15;0.70;;;23.60;55.40;;;;;;5029396;28;20063;-62
2022/06/29 02:57:59;;;;;;;0.80;0.80;;;23.50;55.30;;;;;;5031459;28;20053;-61
2022/06/29 03:00:25;;;;;;;1.05;0.70;;;23.50;55.30;;;;;;5029967;28;20044;-62
2022/06/29 03:02:51;;;;;;;1.95;0.77;;;23.50;55.40;;;;;;5012402;28;20069;-62
2022/06/29 03:05:16;;;;;;;1.83;0.98;;;23.50;55.40;;;;;;5011320;28;20127;-62
2022/06/29 03:07:42;;;;;;;0.88;0.80;;;23.50;55.30;;;;;;5027776;28;20469;-61
2022/06/29 03:10:08;;;;;;;1.38;0.70;;;23.50;55.40;;;;;;5030253;28;20542;-62
2022/06/29 03:12:34;;;;;;;0.70;0.70;;;23.50;55.40;;;;;;5029580;28;20040;-61
2022/06/29 03:14:59;;;;;;;1.67;0.85;;;23.50;55.40;;;;;;5030764;28;20045;-62
2022/06/29 03:17:25;;;;;;;1.13;0.80;;;23.50;55.40;;;;;;5029565;28;20052;-62
2022/06/29 03:19:50;;;;;;;1.60;0.85;;;23.50;55.40;;;;;;5005290;28;20049;-62
2022/06/29 03:22:16;;;;;;;1.30;0.70;;;23.50;55.40;;;;;;5028670;28;20041;-62
2022/06/29 03:24:42;;;;;;;1.92;0.80;;;23.50;55.30;;;;;;5029260;28;20060;-62
2022/06/29 03:27:07;;;;;;;0.70;0.70;;;23.50;55.30;;;;;;5013653;28;20456;-62
2022/06/29 03:29:33;;;;;;;1.05;0.60;;;23.50;55.30;;;;;;5029137;28;20111;-62
2022/06/29 03:31:59;;;;;;;1.08;0.80;;;23.50;55.30;;;;;;5030726;28;20033;-63
2022/06/29 03:34:25;;;;;;;1.15;0.82;;;23.50;55.40;;;;;;5030037;28;20087;-62
2022/06/29 03:36:50;;;;;;;1.38;0.95;;;23.50;55.30;;;;;;5032721;28;20041;-63
2022/06/29 03:39:16;;;;;;;1.08;0.90;;;23.50;55.30;;;;;;5001475;28;20441;-61
2022/06/29 03:41:42;;;;;;;1.38;0.80;;;23.50;55.20;;;;;;5012565;28;20041;-62
2022/06/29 03:44:07;;;;;;;1.15;0.80;;;23.50;55.20;;;;;;5035154;28;20068;-62
2022/06/29 03:46:33;;;;;;;1.15;0.85;;;23.50;55.20;;;;;;5034637;28;20517;-63
2022/06/29 03:48:59;;;;;;;0.70;0.70;;;23.50;55.30;;;;;;5032749;28;20060;-62
2022/06/29 03:51:24;;;;;;;1.05;0.75;;;23.50;55.20;;;;;;5033670;28;20168;-61
2022/06/29 03:53:51;;;;;;;1.35;0.70;;;23.50;55.20;;;;;;5032504;28;20045;-62
2022/06/29 03:56:17;;;;;;;1.50;0.80;;;23.50;55.20;;;;;;4999587;28;20120;-62
2022/06/29 03:58:43;;;;;;;1.33;0.93;;;23.50;55.20;;;;;;5016435;28;20775;-62
2022/06/29 04:01:08;;;;;;;0.80;0.80;;;23.50;55.20;;;;;;5015308;28;20033;-63
2022/06/29 04:03:34;;;;;;;1.20;0.80;;;23.50;55.20;;;;;;5032317;28;20041;-62
2022/06/29 04:05:59;;;;;;;2.63;1.02;;;23.50;55.20;;;;;;5033227;28;20037;-61
2022/06/29 04:08:25;;;;;;;3.05;0.80;;;23.50;55.20;;;;;;5034199;28;20101;-62
2022/06/29 04:10:51;;;;;;;0.85;0.63;;;23.50;55.20;;;;;;5014395;28;20542;-63
2022/06/29 04:13:17;;;;;;;0.75;0.65;;;23.50;55.20;;;;;;5031544;28;20041;-61
2022/06/29 04:15:43;;;;;;;1.33;0.80;;;23.50;55.20;;;;;;5033882;28;20288;-62
2022/06/29 04:18:08;;;;;;;2.35;0.70;;;23.50;55.20;;;;;;5032399;28;20133;-62
2022/06/29 04:23:19;;;;;;;0.93;0.60;;;23.50;55.20;;;;;;5014309;28;20163;-62
2022/06/29 04:25:44;;;;;;;0.80;0.80;;;23.50;55.20;;;;;;5031920;28;20136;-61
2022/06/29 04:28:10;;;;;;;1.40;0.90;;;23.50;55.10;;;;;;5034217;28;20033;-62
2022/06/29 04:30:36;;;;;;;1.00;0.80;;;23.50;55.20;;;;;;5031521;28;20626;-62
2022/06/29 04:33:01;;;;;;;1.38;0.90;;;23.50;55.10;;;;;;5030839;28;20576;-62
2022/06/29 04:35:27;;;;;;;1.77;0.93;;;23.40;55.20;;;;;;5015548;28;20037;-62
2022/06/29 04:37:53;;;;;;;1.67;0.73;;;23.40;55.20;;;;;;5033041;28;20253;-62
2022/06/29 04:40:18;;;;;;;1.80;1.00;;;23.50;55.20;;;;;;5027508;28;21992;-63
2022/06/29 04:42:44;;;;;;;1.17;0.73;;;23.40;55.10;;;;;;5027914;28;20044;-62
2022/06/29 04:46:19;;;;;;;1.25;0.50;;;23.50;55.90;;;;;;5028052;28;20501;-62
2022/06/29 04:48:00;;;;;;;1.25;0.80;;;23.40;55.10;;;;;;5012628;28;20168;-63
2022/06/29 04:50:26;;;;;;;0.68;0.68;;;23.40;55.20;;;;;;5029217;28;20033;-63
2022/06/29 04:52:52;;;;;;;2.85;0.90;;;23.40;55.20;;;;;;5026155;28;21944;-63
2022/06/29 04:55:17;;;;;;;1.27;0.80;;;23.40;55.30;;;;;;5007025;28;20083;-63
2022/06/29 04:57:43;;;;;;;1.15;0.80;;;23.50;55.60;;;;;;5015288;28;20072;-63
2022/06/29 05:00:09;;;;;;;1.80;0.90;;;23.40;55.50;;;;;;5031474;28;20041;-63
2022/06/29 05:02:35;;;;;;;1.75;1.00;;;23.40;55.70;;;;;;5012298;28;20460;-63
2022/06/29 05:05:00;;;;;;;1.38;1.02;;;23.50;56.00;;;;;;5028923;28;20041;-63
2022/06/29 05:07:26;;;;;;;1.52;0.95;;;23.50;56.00;;;;;;5012218;28;20046;-63
2022/06/29 05:09:52;;;;;;;1.45;1.13;;;23.50;56.00;;;;;;5030202;28;20029;-64
2022/06/29 05:12:17;;;;;;;1.45;0.90;;;23.50;56.00;;;;;;5029153;28;20032;-63
2022/06/29 05:14:43;;;;;;;1.27;0.80;;;23.50;55.90;;;;;;5029212;28;20040;-63
2022/06/29 05:17:09;;;;;;;1.05;0.95;;;23.50;55.80;;;;;;5032421;28;20400;-64
2022/06/29 05:19:34;;;;;;;1.75;0.80;;;23.50;55.80;;;;;;5028736;28;20037;-65
2022/06/29 05:22:00;;;;;;;2.78;1.08;;;23.50;55.80;;;;;;5029732;28;20048;-62
2022/06/29 05:24:26;;;;;;;1.27;0.77;;;23.50;55.90;;;;;;5030556;28;20564;-63
2022/06/29 05:26:51;;;;;;;1.20;0.90;;;23.50;56.00;;;;;;5031056;28;20040;-63
2022/06/29 05:29:17;;;;;;;4.70;1.17;;;23.50;55.90;;;;;;5030696;28;20439;-63
2022/06/29 05:31:43;;;;;;;2.70;1.50;;;23.50;55.90;;;;;;5013901;28;20122;-63
2022/06/29 05:34:08;;;;;;;2.13;1.00;;;23.50;55.90;;;;;;5027348;28;20065;-63
2022/06/29 05:36:34;;;;;;;2.15;1.08;;;23.50;55.70;;;;;;5010763;28;20150;-63
2022/06/29 05:39:00;;;;;;;1.17;0.80;;;23.50;55.80;;;;;;5033416;28;20108;-63
2022/06/29 05:41:26;;;;;;;2.60;1.23;;;23.50;55.80;;;;;;5013583;28;20060;-63
2022/06/29 05:43:51;;;;;;;3.15;1.10;;;23.50;55.80;;;;;;5031648;28;20036;-63
2022/06/29 05:46:19;;;;;;;1.90;0.98;;;23.50;55.80;;;;;;5033950;28;20525;-64
2022/06/29 05:48:45;;;;;;;2.28;1.00;;;23.50;55.70;;;;;;5012332;28;20101;-63
2022/06/29 05:51:11;;;;;;;2.05;1.13;;;23.50;55.70;;;;;;4995689;28;20091;-63
2022/06/29 05:53:36;;;;;;;0.98;0.93;;;23.50;55.70;;;;;;5012543;28;20029;-63
2022/06/29 05:56:02;;;;;;;1.65;0.98;;;23.50;55.70;;;;;;5030969;28;20409;-63
2022/06/29 05:58:28;;;;;;;1.95;1.02;;;23.50;55.50;;;;;;4997150;28;20041;-63
2022/06/29 06:00:54;;;;;;;1.42;1.02;;;23.50;55.70;;;;;;5032336;28;20489;-64
2022/06/29 06:03:19;;;;;;;1.67;1.10;;;23.50;55.70;;;;;;5031212;28;20045;-63
2022/06/29 06:05:46;;;;;;;2.20;1.05;;;23.50;55.60;;;;;;5028474;28;20033;-63
2022/06/29 06:08:13;;;;;;;1.73;1.00;;;23.50;55.70;;;;;;5031721;28;20469;-63
2022/06/29 06:10:39;;;;;;;2.53;1.20;;;23.50;55.80;;;;;;5029989;28;20499;-63
2022/06/29 06:13:08;;;;;;;2.38;1.02;;;23.50;55.50;;;;;;5030662;28;20067;-61
2022/06/29 06:15:34;;;;;;;4.05;1.48;;;23.50;55.70;;;;;;5030733;28;20033;-63
2022/06/29 06:18:01;;;;;;;4.10;1.30;;;23.50;55.70;;;;;;5029713;28;20044;-63
2022/06/29 06:20:28;;;;;;;4.90;1.20;;;23.50;55.80;;;;;;5030263;28;20140;-62
2022/06/29 06:22:54;;;;;;;4.00;1.42;;;23.50;55.80;;;;;;5012395;28;20071;-62
2022/06/29 06:25:20;;;;;;;4.68;1.60;;;23.50;55.70;;;;;;5028930;28;20041;-62
2022/06/29 06:27:45;;;;;;;3.33;1.10;;;23.50;55.80;;;;;;5029736;28;20466;-63
2022/06/29 06:30:11;;;;;;;1.98;1.23;;;23.60;55.70;;;;;;5013447;28;20040;-63
2022/06/29 06:32:37;;;;;;;2.33;1.13;;;23.50;55.60;;;;;;5029219;28;20044;-63
2022/06/29 06:35:03;;;;;;;3.30;1.20;;;23.50;55.80;;;;;;5013556;28;20783;-62
2022/06/29 06:37:28;;;;;;;2.80;1.27;;;23.50;56.60;;;;;;5029610;28;20558;-62
2022/06/29 06:42:40;;;;;;;4.95;1.10;;;23.50;55.90;;;;;;5029759;28;20620;-62
2022/06/29 06:45:06;;;;;;;4.35;1.30;;;23.60;55.80;;;;;;5029843;28;20139;-62
2022/06/29 06:47:32;;;;;;;6.95;1.40;;;23.50;55.70;;;;;;5030510;28;20052;-62
2022/06/29 06:49:57;;;;;;;4.95;1.25;;;23.50;55.70;;;;;;5029647;28;20421;-63
2022/06/29 06:52:23;;;;;;;3.58;1.23;;;23.50;55.70;;;;;;5031611;28;20039;-62
2022/06/29 06:54:49;;;;;;;4.03;1.80;;;23.50;55.80;;;;;;5030787;28;20041;-62
2022/06/29 06:57:14;;;;;;;2.67;1.08;;;23.50;55.70;;;;;;5030871;28;20047;-62
2022/06/29 06:59:40;;;;;;;2.92;1.50;;;23.50;55.70;;;;;;5028988;28;20049;-62
2022/06/29 07:02:06;;;;;;;2.75;1.30;;;23.50;55.70;;;;;;5027841;28;20029;-63
2022/06/29 07:04:32;;;;;;;1.30;1.20;;;23.50;55.70;;;;;;5028239;28;20037;-60
2022/06/29 07:06:58;;;;;;;5.45;1.90;;;23.50;55.70;;;;;;5013928;28;20059;-60
2022/06/29 07:09:24;;;;;;;4.88;1.73;;;23.60;55.80;;;;;;5030460;28;20037;-60
2022/06/29 07:11:49;;;;;;;4.68;1.73;;;23.50;55.80;;;;;;5012850;28;20250;-60
2022/06/29 07:14:15;;;;;;;3.88;1.27;;;23.50;55.70;;;;;;5008741;28;20044;-62
2022/06/29 07:16:40;;;;;;;6.28;1.30;;;23.50;55.80;;;;;;5026849;28;20060;-62
2022/06/29 07:19:06;;;;;;;2.28;1.40;;;23.50;55.80;;;;;;5028024;28;20512;-60
2022/06/29 07:21:32;;;;;;;7.53;1.52;;;23.50;55.90;;;;;;5030478;28;20098;-61
2022/06/29 07:23:58;;;;;;;4.50;1.80;;;23.50;56.00;;;;;;5014237;28;20118;-61
2022/06/29 07:26:27;;;;;;;8.75;1.73;;;23.50;56.10;;;;;;5029813;28;20041;-62
2022/06/29 07:28:53;;;;;;;3.47;1.10;;;23.50;56.20;;;;;;4998258;28;20041;-61
2022/06/29 07:31:19;;;;;;;6.05;1.33;;;23.60;56.50;;;;;;5029154;28;20406;-63
2022/06/29 07:33:44;;;;;;;2.45;1.10;;;23.60;56.90;;;;;;5028401;28;20407;-62
2022/06/29 07:36:10;;;;;;;7.30;1.58;;;23.60;56.40;;;;;;5029475;28;20200;-62
2022/06/29 07:38:36;;;;;;;2.10;1.40;;;23.60;56.50;;;;;;4995331;28;20090;-63
2022/06/29 07:41:02;;;;;;;6.93;1.50;;;23.60;56.40;;;;;;5013035;28;20086;-62
2022/06/29 07:43:29;;;;;;;4.03;1.40;;;23.60;56.30;;;;;;5014200;28;20397;-62
2022/06/29 07:45:56;;;;;;;3.33;1.30;;;23.60;56.20;;;;;;5029691;28;20068;-62
2022/06/29 07:48:22;;;;;;;3.40;1.70;;;23.60;56.20;;;;;;5010528;28;20489;-63
2022/06/29 07:50:48;;;;;;;4.45;1.40;;;23.60;56.10;;;;;;5011184;28;20032;-62
2022/06/29 07:53:13;;;;;;;4.35;1.38;;;23.60;56.10;;;;;;5031534;28;20043;-64
2022/06/29 07:55:39;;;;;;;2.13;1.52;;;23.60;56.00;;;;;;5030383;28;20094;-63
2022/06/29 07:58:05;;;;;;;5.13;1.70;;;23.60;55.90;;;;;;5028922;28;20500;-63
2022/06/29 08:00:32;;;;;;;5.88;1.73;;;23.60;55.90;;;;;;5028497;28;20323;-63
2022/06/29 08:02:58;;;;;;;2.20;1.15;;;23.60;55.90;;;;;;5011601;28;20098;-63
2022/06/29 08:05:24;;;;;;;5.25;1.77;;;23.60;56.00;;;;;;5008061;28;20771;-64
2022/06/29 08:07:50;;;;;;;1.95;1.33;;;23.60;56.30;;;;;;5028293;28;20496;-63
2022/06/29 08:10:16;;;;;;;3.28;1.50;;;23.60;56.50;;;;;;5025679;28;20100;-63
2022/06/29 08:12:41;;;;;;;3.35;1.40;;;23.60;56.80;;;;;;5010571;28;20068;-63
2022/06/29 08:15:08;;;;;;;3.53;1.70;;;23.70;56.90;;;;;;5027437;28;20136;-63
2022/06/29 08:17:34;;;;;;;3.45;1.65;;;23.60;56.90;;;;;;5028329;28;20052;-61
2022/06/29 08:20:02;;;;;;;2.88;1.25;;;23.60;56.90;;;;;;5029405;28;20048;-63
2022/06/29 08:22:27;;;;;;;3.92;1.40;;;23.60;57.00;;;;;;5028045;28;20051;-63
2022/06/29 08:24:53;;;;;;;2.35;1.40;;;23.60;57.00;;;;;;5029741;28;20487;-63
2022/06/29 08:27:22;;;;;;;1.40;1.27;;;23.70;57.10;;;;;;5030700;28;20515;-63
2022/06/29 08:29:49;;;;;;;3.17;1.33;;;23.70;57.00;;;;;;5030214;28;20030;-60
2022/06/29 08:32:15;;;;;;;2.78;1.63;;;23.70;56.90;;;;;;5032877;28;20065;-62
2022/06/29 08:34:41;;;;;;;2.35;1.30;;;23.70;57.10;;;;;;5013485;28;20069;-61
2022/06/29 08:37:07;;;;;;;5.53;1.40;;;23.70;57.20;;;;;;5029725;28;20033;-64
2022/06/29 08:39:33;;;;;;;5.38;1.52;;;23.70;57.20;;;;;;5027716;28;20041;-63
2022/06/29 08:42:04;;;;;;;4.32;1.52;;;23.70;57.50;;;;;;5027105;28;20033;-64
2022/06/29 08:44:36;;;;;;;2.47;1.60;;;23.70;57.60;;;;;;5012360;28;20049;-63
2022/06/29 08:47:03;;;;;;;6.05;1.85;;;23.70;57.80;;;;;;5031883;28;20046;-63
2022/06/29 08:49:29;;;;;;;4.43;1.55;;;23.70;57.90;;;;;;5030167;28;20068;-63
2022/06/29 08:51:56;;;;;;;2.63;1.50;;;23.70;58.10;;;;;;5030619;28;20083;-63
2022/06/29 08:54:25;;;;;;;3.83;1.70;;;23.80;58.30;;;;;;5031464;28;20099;-64
2022/06/29 08:56:53;;;;;;;5.25;1.20;;;23.80;58.40;;;;;;5030069;28;20041;-64
2022/06/29 08:59:22;;;;;;;4.75;1.73;;;23.80;58.60;;;;;;5031097;28;20064;-63
2022/06/29 09:01:52;;;;;;;4.18;1.60;;;23.80;58.60;;;;;;5016948;28;20034;-63
2022/06/29 09:04:18;;;;;;;2.90;1.55;;;23.80;58.70;;;;;;5030005;28;20042;-63
2022/06/29 09:06:45;;;;;;;5.15;1.95;;;23.80;58.70;;;;;;5031286;28;20042;-63
2022/06/29 09:09:12;;;;;;;2.90;1.73;;;23.80;59.00;;;;;;5031225;28;21604;-63
2022/06/29 09:11:42;;;;;;;5.25;1.75;;;23.90;59.20;;;;;;5009998;28;20046;-62
2022/06/29 09:14:15;;;;;;;4.82;1.58;;;23.80;59.70;;;;;;5027261;28;20507;-61
2022/06/29 09:17:01;;;;;;;4.40;1.50;;;23.80;58.90;;;;;;5032615;28;20033;-64
2022/06/29 09:19:43;;;;;;;3.10;1.60;;;23.80;59.00;;;;;;5030083;28;20409;-63
2022/06/29 09:22:09;;;;;;;5.57;2.20;;;23.80;59.10;;;;;;5009333;28;20128;-63
2022/06/29 09:24:35;;;;;;;5.72;2.03;;;23.80;58.90;;;;;;5010511;28;20200;-62
2022/06/29 09:27:03;;;;;;;6.00;2.05;;;23.80;58.70;;;;;;5030535;28;20501;-64
2022/06/29 09:29:31;;;;;;;4.43;1.58;;;23.80;58.50;;;;;;5030651;28;20050;-63
2022/06/29 09:32:06;;;;;;;5.57;2.05;;;23.80;58.20;;;;;;5030198;28;20427;-62
2022/06/29 09:34:49;;;;;;;2.72;1.52;;;23.80;57.90;;;;;;5026239;28;20049;-62
2022/06/29 09:37:22;;;;;;;2.58;1.75;;;23.80;57.90;;;;;;5026715;28;20064;-62
2022/06/29 09:39:51;;;;;;;4.32;1.85;;;23.80;58.00;;;;;;5028940;28;20099;-62
2022/06/29 09:42:18;;;;;;;2.05;1.88;;;23.80;57.90;;;;;;5028540;28;20049;-63
2022/06/29 09:44:45;;;;;;;3.78;1.83;;;23.80;57.90;;;;;;5026748;28;20144;-62
2022/06/29 09:47:15;;;;;;;2.65;1.63;;;23.80;57.90;;;;;;5027145;28;20092;-63
2022/06/29 09:49:43;;;;;;;3.95;2.00;;;23.80;57.90;;;;;;5031463;28;20045;-64
2022/06/29 09:52:08;;;;;;;3.17;1.70;;;23.80;57.90;;;;;;5011418;28;20083;-64
2022/06/29 09:54:42;;;;;;;3.88;1.50;;;23.80;57.80;;;;;;5028302;28;20096;-63
2022/06/29 09:57:08;;;;;;;1.73;1.50;;;23.80;58.10;;;;;;5031363;28;20070;-64
2022/06/29 10:02:39;;;;;;;2.25;1.50;;;23.80;57.90;;;;;;5026235;28;20128;-63
2022/06/29 10:05:06;;;;;;;2.38;1.63;;;23.80;57.70;;;;;;4999766;28;20053;-63
2022/06/29 10:07:34;;;;;;;3.75;2.08;;;23.80;57.80;;;;;;5010491;28;20041;-62
2022/06/29 10:10:01;;;;;;;5.72;1.77;;;23.80;58.10;;;;;;4988707;28;20044;-63
2022/06/29 10:15:40;;;;;;;3.88;1.90;;;23.80;58.50;;;;;;5027168;28;20041;-64
2022/06/29 10:18:24;;;;;;;5.03;1.70;;;23.80;58.80;;;;;;5030057;28;20493;-63
2022/06/29 10:20:52;;;;;;;4.35;1.70;;;23.80;58.60;;;;;;5031873;28;20138;-64
2022/06/29 10:23:44;;;;;;;4.68;1.67;;;23.80;58.50;;;;;;5029003;28;20044;-63
2022/06/29 10:26:32;;;;;;;1.90;1.70;;;23.80;58.50;;;;;;5032822;28;20557;-65
2022/06/29 10:29:10;;;;;;;3.35;1.65;;;23.80;58.80;;;;;;5030045;28;20557;-64
2022/06/29 10:32:11;;;;;;;4.97;1.80;;;23.80;58.90;;;;;;5025508;28;20067;-63
2022/06/29 10:34:37;;;;;;;;;;;23.80;59.10;;;;;;5013460;28;20041;-63
2022/06/29 10:37:09;;;;;;;2.45;1.88;;;23.80;59.20;;;;;;5031068;28;19937;-64
2022/06/29 10:39:48;;;;;;;3.08;1.50;;;23.80;59.10;;;;;;5029171;28;20045;-63
2022/06/29 10:45:22;;;;;;;5.53;1.75;;;23.80;58.90;;;;;;5027164;28;20045;-65
2022/06/29 10:47:58;;;;;;;3.22;1.63;;;23.80;59.10;;;;;;5030007;28;20048;-66
2022/06/29 10:50:28;;;;;;;4.90;1.95;;;23.80;59.00;;;;;;5030856;28;20113;-62
2022/06/29 10:53:03;;;;;;;4.07;1.70;;;23.80;58.90;;;;;;5010308;28;20037;-63
2022/06/29 10:55:30;;;;;;;6.47;1.90;;;23.80;59.60;;;;;;5013210;28;20098;-64
2022/06/29 10:57:57;;;;;;;3.47;1.70;;;23.80;59.70;;;;;;5028539;28;20090;-64
2022/06/29 11:00:25;;;;;;;5.78;2.00;;;23.90;58.90;;;;;;5029648;28;20040;-63
2022/06/29 11:02:51;;;;;;;8.43;2.13;;;23.80;58.80;;;;;;4999158;28;20076;-65
2022/06/29 11:05:17;;;;;;;8.57;1.88;;;23.90;58.90;;;;;;5029493;28;20069;-65
2022/06/29 11:13:24;;;;;;;9.80;1.90;;;23.90;59.20;;;;;;5029112;28;20054;-64
2022/06/29 11:15:53;;;;;;;3.20;1.67;;;23.90;59.50;;;;;;5010646;28;20534;-65
2022/06/29 11:18:21;;;;;;;2.72;1.83;;;23.90;59.50;;;;;;5027998;28;20033;-64
2022/06/29 11:20:51;;;;;;;3.92;1.70;;;23.80;59.40;;;;;;5012536;28;20412;-64
2022/06/29 11:23:27;;;;;;;4.45;2.33;;;23.80;59.50;;;;;;5027871;28;20566;-64
2022/06/29 11:25:56;;;;;;;3.38;1.90;;;23.80;59.50;;;;;;5027497;28;20383;-64
2022/06/29 11:28:29;;;;;;;2.65;1.88;;;23.90;59.60;;;;;;5028124;28;20470;-65
2022/06/29 11:31:09;;;;;;;4.43;1.90;;;23.80;59.50;;;;;;5029050;28;20045;-64
2022/06/29 11:33:42;;;;;;;5.53;1.90;;;23.80;59.50;;;;;;5028785;28;20037;-64
2022/06/29 11:36:11;;;;;;;2.30;1.80;;;23.80;59.50;;;;;;5031025;28;20276;-64
2022/06/29 11:38:40;;;;;;;1.95;1.80;;;23.80;59.30;;;;;;5028293;28;20041;-64
2022/06/29 11:43:03;;;;;;;3.50;1.80;;;23.80;59.20;;;;;;5029724;28;20799;-65
2022/06/29 11:44:27;;;;;;;2.70;2.03;;;23.80;59.00;;;;;;5030146;28;20042;-63
2022/06/29 11:46:54;;;;;;;2.85;1.98;;;23.90;58.80;;;;;;5029408;28;20272;-63
2022/06/29 11:49:38;;;;;;;2.25;1.70;;;23.80;58.70;;;;;;5027924;28;20037;-63
2022/06/29 11:52:08;;;;;;;1.73;1.63;;;23.80;58.60;;;;;;5029126;28;20056;-64
2022/06/29 11:54:43;;;;;;;2.13;1.92;;;23.90;58.50;;;;;;5010142;28;20046;-62
2022/06/29 11:57:17;;;;;;;3.95;2.13;;;23.90;58.40;;;;;;5012879;28;20516;-64
2022/06/29 11:59:45;;;;;;;2.17;1.80;;;23.90;58.60;;;;;;5001796;28;20309;-63
2022/06/29 12:02:12;;;;;;;3.55;1.95;;;23.80;59.30;;;;;;5027815;28;20070;-62
2022/06/29 12:04:41;;;;;;;3.15;2.20;;;23.90;59.30;;;;;;5002507;28;20397;-63
2022/06/29 12:07:11;;;;;;;2.95;1.77;;;23.90;59.30;;;;;;5034122;28;20489;-64
2022/06/29 12:09:39;;;;;;;2.45;1.73;;;23.90;59.50;;;;;;5031307;28;20042;-63
2022/06/29 12:12:09;;;;;;;3.92;1.90;;;23.90;59.20;;;;;;5032544;28;20368;-65
2022/06/29 12:14:37;;;;;;;2.22;2.03;;;23.90;59.20;;;;;;5033561;28;20079;-62
2022/06/29 12:17:04;;;;;;;2.47;2.20;;;23.90;59.70;;;;;;5031307;28;20140;-64
2022/06/29 12:19:29;;;;;;;2.47;2.08;;;23.90;59.70;;;;;;5034973;28;20037;-63
2022/06/29 12:21:57;;;;;;;2.45;2.20;;;23.90;59.30;;;;;;5031076;28;20119;-63
2022/06/29 12:24:24;;;;;;;4.28;2.25;;;23.90;58.90;;;;;;5014263;28;20076;-62
2022/06/29 12:26:49;;;;;;;2.05;1.80;;;23.90;58.70;;;;;;5030678;28;20543;-63
2022/06/29 12:29:15;;;;;;;2.42;2.28;;;23.90;58.90;;;;;;5032725;28;20050;-65
2022/06/29 12:31:42;;;;;;;3.55;2.30;;;23.90;58.70;;;;;;5011142;28;20717;-63
2022/06/29 12:34:09;;;;;;;2.78;2.10;;;23.90;58.60;;;;;;5031930;28;20047;-64
2022/06/29 12:36:34;;;;;;;2.83;2.40;;;23.90;58.80;;;;;;5001252;28;20041;-63
2022/06/29 12:39:00;;;;;;;2.50;2.30;;;23.90;58.90;;;;;;5031167;28;20650;-63
2022/06/29 12:41:26;;;;;;;3.50;2.30;;;23.90;59.00;;;;;;5012971;28;20116;-64
2022/06/29 12:43:52;;;;;;;3.15;2.30;;;23.90;59.00;;;;;;5009914;28;20053;-65
2022/06/29 12:46:18;;;;;;;2.53;2.22;;;24.00;58.90;;;;;;4994607;28;20422;-65
2022/06/29 12:48:43;;;;;;;5.30;2.35;;;23.90;58.30;;;;;;5011727;28;20050;-64
2022/06/29 12:51:09;;;;;;;5.10;2.63;;;23.90;58.10;;;;;;4993632;28;20490;-65
2022/06/29 12:53:35;;;;;;;2.95;2.40;;;23.90;57.90;;;;;;5011881;28;20038;-61
2022/06/29 12:56:02;;;;;;;2.85;2.53;;;23.90;57.70;;;;;;5009397;28;20428;-59
2022/06/29 12:58:28;;;;;;;4.88;2.85;;;23.90;57.80;;;;;;5011833;28;20112;-62
2022/06/29 13:00:53;;;;;;;2.85;2.50;;;23.90;57.80;;;;;;5012388;28;20061;-62
2022/06/29 13:03:19;;;;;;;2.97;2.67;;;23.90;57.90;;;;;;5011147;28;20050;-59
2022/06/29 13:05:45;;;;;;;3.83;2.33;;;23.90;57.80;;;;;;5011963;28;20076;-62
2022/06/29 13:08:11;;;;;;;2.95;2.75;;;23.90;57.80;;;;;;5011983;28;20033;-60
2022/06/29 13:10:36;;;;;;;2.60;2.40;;;23.90;58.00;;;;;;5013107;28;20037;-62
2022/06/29 13:13:03;;;;;;;2.78;2.58;;;23.90;58.70;;;;;;5010003;28;20034;-61
2022/06/29 13:15:29;;;;;;;2.60;2.38;;;23.90;59.10;;;;;;5012519;28;20045;-61